sensor_id;sensor_type;location;lat;lon;timestamp;pressure;altitude;pressure_sealevel;temperature;humidity
27958;BME280;15295;42.658;23.374;2023-03-21T00:01:05;94428.22;;;18.51;33.17
27958;BME280;15295;42.658;23.374;2023-03-21T00:03:33;94411.16;;;18.52;33.46
27958;BME280;15295;42.658;23.374;2023-03-21T00:06:10;94408.25;;;18.34;33.81
27958;BME280;15295;42.658;23.374;2023-03-21T00:08:36;94401.06;;;18.36;33.76
27958;BME280;15295;42.658;23.374;2023-03-21T00:11:04;94418.97;;;18.44;33.83
27958;BME280;15295;42.658;23.374;2023-03-21T00:13:32;94418.97;;;18.44;33.81
27958;BME280;15295;42.658;23.374;2023-03-21T00:18:34;94403.81;;;18.36;33.63
27958;BME280;15295;42.658;23.374;2023-03-21T00:21:06;94402.09;;;18.30;33.72
27958;BME280;15295;42.658;23.374;2023-03-21T00:23:34;94405.97;;;18.32;34.02
27958;BME280;15295;42.658;23.374;2023-03-21T00:26:01;94405.28;;;18.28;34.06
27958;BME280;15295;42.658;23.374;2023-03-21T00:28:27;94419.31;;;18.34;34.24
27958;BME280;15295;42.658;23.374;2023-03-21T00:30:57;94380.84;;;18.05;34.48
27958;BME280;15295;42.658;23.374;2023-03-21T00:33:29;94412.69;;;18.10;34.82
27958;BME280;15295;42.658;23.374;2023-03-21T00:35:54;94416.38;;;18.07;34.61
27958;BME280;15295;42.658;23.374;2023-03-21T00:38:22;94428.38;;;18.13;34.50
27958;BME280;15295;42.658;23.374;2023-03-21T00:40:48;94426.09;;;17.99;34.58
27958;BME280;15295;42.658;23.374;2023-03-21T00:43:18;94432.00;;;17.88;34.78
27958;BME280;15295;42.658;23.374;2023-03-21T00:45:49;94413.72;;;17.69;35.24
27958;BME280;15295;42.658;23.374;2023-03-21T00:48:15;94430.53;;;17.75;35.29
27958;BME280;15295;42.658;23.374;2023-03-21T00:50:43;94403.47;;;17.57;35.42
27958;BME280;15295;42.658;23.374;2023-03-21T00:53:10;94412.94;;;17.68;35.39
27958;BME280;15295;42.658;23.374;2023-03-21T00:55:35;94401.03;;;17.46;35.40
27958;BME280;15295;42.658;23.374;2023-03-21T00:58:03;94423.47;;;17.61;35.73
27958;BME280;15295;42.658;23.374;2023-03-21T01:00:32;94421.91;;;17.60;35.39
27958;BME280;15295;42.658;23.374;2023-03-21T01:03:01;94410.09;;;17.59;35.57
27958;BME280;15295;42.658;23.374;2023-03-21T01:05:38;94408.22;;;17.56;35.43
27958;BME280;15295;42.658;23.374;2023-03-21T01:08:24;94411.63;;;17.60;35.66
27958;BME280;15295;42.658;23.374;2023-03-21T01:10:51;94414.31;;;17.51;35.82
27958;BME280;15295;42.658;23.374;2023-03-21T01:13:20;94416.66;;;17.53;35.86
27958;BME280;15295;42.658;23.374;2023-03-21T01:15:50;94396.19;;;17.38;36.15
27958;BME280;15295;42.658;23.374;2023-03-21T01:18:17;94410.78;;;17.38;36.11
27958;BME280;15295;42.658;23.374;2023-03-21T01:20:44;94409.56;;;17.39;36.39
27958;BME280;15295;42.658;23.374;2023-03-21T01:23:13;94399.19;;;17.31;36.59
27958;BME280;15295;42.658;23.374;2023-03-21T01:25:39;94384.63;;;17.18;36.62
27958;BME280;15295;42.658;23.374;2023-03-21T01:28:05;94409.56;;;17.27;36.36
27958;BME280;15295;42.658;23.374;2023-03-21T01:30:31;94411.34;;;17.21;36.31
27958;BME280;15295;42.658;23.374;2023-03-21T01:32:59;94416.56;;;17.19;36.43
27958;BME280;15295;42.658;23.374;2023-03-21T01:35:25;94409.34;;;17.09;36.65
27958;BME280;15295;42.658;23.374;2023-03-21T01:37:50;94386.88;;;16.85;36.50
27958;BME280;15295;42.658;23.374;2023-03-21T01:40:23;94403.50;;;16.94;36.78
27958;BME280;15295;42.658;23.374;2023-03-21T01:42:49;94388.53;;;16.82;36.75
27958;BME280;15295;42.658;23.374;2023-03-21T01:48:18;94371.28;;;16.66;36.85
27958;BME280;15295;42.658;23.374;2023-03-21T01:50:45;94407.19;;;16.91;37.08
27958;BME280;15295;42.658;23.374;2023-03-21T01:53:12;94379.13;;;16.67;36.68
27958;BME280;15295;42.658;23.374;2023-03-21T01:55:40;94398.44;;;16.80;36.89
27958;BME280;15295;42.658;23.374;2023-03-21T01:58:07;94399.44;;;16.73;37.07
27958;BME280;15295;42.658;23.374;2023-03-21T02:00:33;94369.94;;;16.58;37.03
27958;BME280;15295;42.658;23.374;2023-03-21T02:03:04;94372.72;;;16.58;37.06
27958;BME280;15295;42.658;23.374;2023-03-21T02:05:40;94409.59;;;16.76;37.33
27958;BME280;15295;42.658;23.374;2023-03-21T02:08:08;94388.72;;;16.63;37.11
27958;BME280;15295;42.658;23.374;2023-03-21T02:10:36;94400.22;;;16.61;37.29
27958;BME280;15295;42.658;23.374;2023-03-21T02:13:04;94406.38;;;16.65;37.43
27958;BME280;15295;42.658;23.374;2023-03-21T02:15:37;94403.28;;;16.63;37.37
27958;BME280;15295;42.658;23.374;2023-03-21T02:20:49;94400.75;;;16.56;37.51
27958;BME280;15295;42.658;23.374;2023-03-21T02:28:47;94397.00;;;16.50;37.49
27958;BME280;15295;42.658;23.374;2023-03-21T02:37:26;94388.34;;;16.48;37.43
27958;BME280;15295;42.658;23.374;2023-03-21T02:45:52;94395.97;;;16.44;37.21
27958;BME280;15295;42.658;23.374;2023-03-21T02:48:23;94368.13;;;16.26;37.14
27958;BME280;15295;42.658;23.374;2023-03-21T02:50:52;94390.66;;;16.37;37.30
27958;BME280;15295;42.658;23.374;2023-03-21T02:53:21;94385.34;;;16.43;37.23
27958;BME280;15295;42.658;23.374;2023-03-21T02:55:52;94376.53;;;16.35;37.13
27958;BME280;15295;42.658;23.374;2023-03-21T02:58:20;94386.78;;;16.47;37.17
27958;BME280;15295;42.658;23.374;2023-03-21T03:00:49;94383.03;;;16.41;37.51
27958;BME280;15295;42.658;23.374;2023-03-21T03:03:19;94384.69;;;16.39;37.42
27958;BME280;15295;42.658;23.374;2023-03-21T03:05:51;94385.34;;;16.43;37.37
27958;BME280;15295;42.658;23.374;2023-03-21T03:08:40;94391.19;;;16.45;37.46
27958;BME280;15295;42.658;23.374;2023-03-21T03:17:34;94400.44;;;16.38;37.63
27958;BME280;15295;42.658;23.374;2023-03-21T03:23:23;94395.16;;;16.31;37.58
27958;BME280;15295;42.658;23.374;2023-03-21T03:25:55;94384.44;;;16.20;37.88
27958;BME280;15295;42.658;23.374;2023-03-21T03:28:26;94382.75;;;16.23;37.91
27958;BME280;15295;42.658;23.374;2023-03-21T03:30:56;94374.72;;;16.16;37.88
27958;BME280;15295;42.658;23.374;2023-03-21T03:33:25;94386.41;;;16.20;38.03
27958;BME280;15295;42.658;23.374;2023-03-21T03:35:52;94368.53;;;16.12;37.93
27958;BME280;15295;42.658;23.374;2023-03-21T03:38:20;94395.47;;;16.20;38.01
27958;BME280;15295;42.658;23.374;2023-03-21T03:40:53;94390.38;;;16.19;38.02
27958;BME280;15295;42.658;23.374;2023-03-21T03:43:26;94386.72;;;16.09;38.21
27958;BME280;15295;42.658;23.374;2023-03-21T03:46:02;94387.50;;;16.10;38.30
27958;BME280;15295;42.658;23.374;2023-03-21T03:48:43;94393.53;;;16.05;38.51
27958;BME280;15295;42.658;23.374;2023-03-21T03:51:23;94399.56;;;16.00;38.58
27958;BME280;15295;42.658;23.374;2023-03-21T03:54:13;94397.03;;;15.93;38.86
27958;BME280;15295;42.658;23.374;2023-03-21T03:56:42;94397.75;;;15.81;38.53
27958;BME280;15295;42.658;23.374;2023-03-21T03:59:08;94394.44;;;15.57;38.55
27958;BME280;15295;42.658;23.374;2023-03-21T04:01:34;94371.63;;;15.40;38.92
27958;BME280;15295;42.658;23.374;2023-03-21T04:03:59;94371.97;;;15.42;38.80
27958;BME280;15295;42.658;23.374;2023-03-21T04:06:25;94375.63;;;15.39;38.81
27958;BME280;15295;42.658;23.374;2023-03-21T04:08:56;94400.91;;;15.51;38.57
27958;BME280;15295;42.658;23.374;2023-03-21T04:11:26;94392.06;;;15.43;38.56
27958;BME280;15295;42.658;23.374;2023-03-21T04:13:52;94394.38;;;15.44;38.59
27958;BME280;15295;42.658;23.374;2023-03-21T04:16:19;94386.78;;;15.32;38.50
27958;BME280;15295;42.658;23.374;2023-03-21T04:18:45;94396.06;;;15.38;38.65
27958;BME280;15295;42.658;23.374;2023-03-21T04:21:12;94390.47;;;15.42;38.41
27958;BME280;15295;42.658;23.374;2023-03-21T04:23:38;94373.47;;;15.31;38.47
27958;BME280;15295;42.658;23.374;2023-03-21T04:26:04;94379.44;;;15.42;38.41
27958;BME280;15295;42.658;23.374;2023-03-21T04:28:31;94381.03;;;15.43;38.58
27958;BME280;15295;42.658;23.374;2023-03-21T04:30:58;94368.88;;;15.40;38.51
27958;BME280;15295;42.658;23.374;2023-03-21T04:33:24;94367.19;;;15.47;38.35
27958;BME280;15295;42.658;23.374;2023-03-21T04:35:57;94375.38;;;15.50;38.49
27958;BME280;15295;42.658;23.374;2023-03-21T04:38:30;94350.66;;;15.30;38.69
27958;BME280;15295;42.658;23.374;2023-03-21T04:40:56;94383.88;;;15.56;38.62
27958;BME280;15295;42.658;23.374;2023-03-21T04:43:23;94386.94;;;15.58;38.62
27958;BME280;15295;42.658;23.374;2023-03-21T04:45:49;94349.78;;;15.33;38.62
27958;BME280;15295;42.658;23.374;2023-03-21T04:48:15;94373.91;;;15.46;38.63
27958;BME280;15295;42.658;23.374;2023-03-21T04:50:43;94372.34;;;15.44;38.62
27958;BME280;15295;42.658;23.374;2023-03-21T04:53:09;94370.63;;;15.34;38.67
27958;BME280;15295;42.658;23.374;2023-03-21T04:55:34;94381.47;;;15.41;38.79
27958;BME280;15295;42.658;23.374;2023-03-21T04:58:02;94390.44;;;15.46;38.79
27958;BME280;15295;42.658;23.374;2023-03-21T05:00:29;94376.69;;;15.42;39.09
27958;BME280;15295;42.658;23.374;2023-03-21T05:02:55;94387.47;;;15.36;38.92
27958;BME280;15295;42.658;23.374;2023-03-21T05:05:26;94391.63;;;15.44;38.88
27958;BME280;15295;42.658;23.374;2023-03-21T05:07:52;94404.09;;;15.49;38.94
27958;BME280;15295;42.658;23.374;2023-03-21T05:10:24;94372.84;;;15.23;39.20
27958;BME280;15295;42.658;23.374;2023-03-21T05:12:52;94353.53;;;15.11;39.51
27958;BME280;15295;42.658;23.374;2023-03-21T05:15:18;94402.81;;;15.37;39.38
27958;BME280;15295;42.658;23.374;2023-03-21T05:17:54;94372.84;;;15.23;39.39
27958;BME280;15295;42.658;23.374;2023-03-21T05:20:21;94373.13;;;15.29;39.20
27958;BME280;15295;42.658;23.374;2023-03-21T05:22:46;94380.00;;;15.37;39.42
27958;BME280;15295;42.658;23.374;2023-03-21T05:25:15;94403.06;;;15.43;39.50
27958;BME280;15295;42.658;23.374;2023-03-21T05:27:43;94412.25;;;15.53;39.50
27958;BME280;15295;42.658;23.374;2023-03-21T05:30:18;94395.16;;;15.45;39.42
27958;BME280;15295;42.658;23.374;2023-03-21T05:33:28;94379.66;;;15.35;39.54
27958;BME280;15295;42.658;23.374;2023-03-21T05:36:02;94402.13;;;15.50;39.57
27958;BME280;15295;42.658;23.374;2023-03-21T05:38:33;94399.59;;;15.55;39.55
27958;BME280;15295;42.658;23.374;2023-03-21T05:41:15;94380.94;;;15.47;39.31
27958;BME280;15295;42.658;23.374;2023-03-21T05:43:41;94396.06;;;15.55;39.39
27958;BME280;15295;42.658;23.374;2023-03-21T05:46:07;94392.28;;;15.65;39.44
27958;BME280;15295;42.658;23.374;2023-03-21T05:48:35;94402.91;;;15.79;39.13
27958;BME280;15295;42.658;23.374;2023-03-21T05:51:01;94409.03;;;15.86;38.86
27958;BME280;15295;42.658;23.374;2023-03-21T05:53:27;94400.22;;;15.91;38.92
27958;BME280;15295;42.658;23.374;2023-03-21T05:55:52;94373.84;;;15.78;38.82
27958;BME280;15295;42.658;23.374;2023-03-21T05:58:18;94398.56;;;15.94;38.59
27958;BME280;15295;42.658;23.374;2023-03-21T06:00:43;94379.81;;;15.89;38.62
27958;BME280;15295;42.658;23.374;2023-03-21T06:03:16;94382.97;;;16.03;38.83
27958;BME280;15295;42.658;23.374;2023-03-21T06:05:41;94377.34;;;16.07;38.89
27958;BME280;15295;42.658;23.374;2023-03-21T06:08:09;94370.06;;;16.13;39.11
27958;BME280;15295;42.658;23.374;2023-03-21T06:10:34;94374.94;;;16.21;39.13
27958;BME280;15295;42.658;23.374;2023-03-21T06:13:00;94375.22;;;16.40;38.90
27958;BME280;15295;42.658;23.374;2023-03-21T06:15:25;94376.91;;;16.50;38.53
27958;BME280;15295;42.658;23.374;2023-03-21T06:17:51;94377.81;;;16.59;38.28
27958;BME280;15295;42.658;23.374;2023-03-21T06:20:17;94373.50;;;16.71;38.27
27958;BME280;15295;42.658;23.374;2023-03-21T06:22:43;94381.00;;;16.83;37.97
27958;BME280;15295;42.658;23.374;2023-03-21T06:25:11;94373.16;;;16.81;37.54
27958;BME280;15295;42.658;23.374;2023-03-21T06:27:36;94380.09;;;16.98;37.67
27958;BME280;15295;42.658;23.374;2023-03-21T06:30:03;94370.63;;;17.00;36.80
27958;BME280;15295;42.658;23.374;2023-03-21T06:32:30;94366.75;;;17.10;36.55
27958;BME280;15295;42.658;23.374;2023-03-21T06:34:55;94377.31;;;17.24;36.37
27958;BME280;15295;42.658;23.374;2023-03-21T06:37:21;94371.69;;;17.27;35.87
27958;BME280;15295;42.658;23.374;2023-03-21T06:39:48;94371.66;;;17.40;36.07
27958;BME280;15295;42.658;23.374;2023-03-21T06:42:14;94350.44;;;17.37;35.83
27958;BME280;15295;42.658;23.374;2023-03-21T06:44:40;94371.53;;;17.56;35.54
27958;BME280;15295;42.658;23.374;2023-03-21T06:47:05;94383.78;;;17.67;35.20
27958;BME280;15295;42.658;23.374;2023-03-21T06:49:31;94388.78;;;17.82;35.26
27958;BME280;15295;42.658;23.374;2023-03-21T06:52:01;94381.94;;;17.86;34.75
27958;BME280;15295;42.658;23.374;2023-03-21T06:54:27;94388.88;;;17.91;34.99
27958;BME280;15295;42.658;23.374;2023-03-21T06:56:53;94387.28;;;18.02;34.72
27958;BME280;15295;42.658;23.374;2023-03-21T06:59:35;94368.50;;;17.97;34.68
27958;BME280;15295;42.658;23.374;2023-03-21T07:02:06;94372.22;;;18.03;34.50
27958;BME280;15295;42.658;23.374;2023-03-21T07:04:34;94390.69;;;18.28;34.65
27958;BME280;15295;42.658;23.374;2023-03-21T07:07:02;94385.91;;;18.28;34.53
27958;BME280;15295;42.658;23.374;2023-03-21T07:09:30;94403.47;;;18.47;34.72
27958;BME280;15295;42.658;23.374;2023-03-21T07:11:55;94404.16;;;18.60;34.36
27958;BME280;15295;42.658;23.374;2023-03-21T07:14:22;94402.09;;;18.73;34.47
27958;BME280;15295;42.658;23.374;2023-03-21T07:16:48;94385.94;;;18.81;34.05
27958;BME280;15295;42.658;23.374;2023-03-21T07:19:22;94393.88;;;19.00;34.23
27958;BME280;15295;42.658;23.374;2023-03-21T07:21:48;94395.16;;;19.08;34.35
27958;BME280;15295;42.658;23.374;2023-03-21T07:24:13;94394.38;;;19.08;34.25
27958;BME280;15295;42.658;23.374;2023-03-21T07:26:39;94399.16;;;19.07;34.14
27958;BME280;15295;42.658;23.374;2023-03-21T07:29:04;94404.91;;;19.22;34.23
27958;BME280;15295;42.658;23.374;2023-03-21T07:31:39;94397.28;;;19.35;34.21
27958;BME280;15295;42.658;23.374;2023-03-21T07:34:04;94401.38;;;19.31;34.39
27958;BME280;15295;42.658;23.374;2023-03-21T07:36:30;94392.75;;;19.29;34.22
27958;BME280;15295;42.658;23.374;2023-03-21T07:38:58;94405.38;;;19.30;34.47
27958;BME280;15295;42.658;23.374;2023-03-21T07:41:23;94389.53;;;19.30;34.15
27958;BME280;15295;42.658;23.374;2023-03-21T07:43:49;94360.84;;;19.15;34.35
27958;BME280;15295;42.658;23.374;2023-03-21T07:46:20;94392.69;;;19.50;34.07
27958;BME280;15295;42.658;23.374;2023-03-21T07:49:01;94359.09;;;19.39;34.14
27958;BME280;15295;42.658;23.374;2023-03-21T07:51:47;94379.44;;;19.63;33.83
27958;BME280;15295;42.658;23.374;2023-03-21T07:54:18;94370.09;;;19.61;33.72
27958;BME280;15295;42.658;23.374;2023-03-21T07:56:53;94389.03;;;19.71;33.64
27958;BME280;15295;42.658;23.374;2023-03-21T07:59:20;94411.06;;;19.75;33.51
27958;BME280;15295;42.658;23.374;2023-03-21T08:09:53;94388.25;;;19.89;32.93
27958;BME280;15295;42.658;23.374;2023-03-21T08:12:28;94382.28;;;19.90;33.09
27958;BME280;15295;42.658;23.374;2023-03-21T08:15:08;94356.69;;;19.86;32.74
27958;BME280;15295;42.658;23.374;2023-03-21T08:17:36;94405.09;;;20.22;32.80
27958;BME280;15295;42.658;23.374;2023-03-21T08:20:19;94384.41;;;20.05;33.19
27958;BME280;15295;42.658;23.374;2023-03-21T08:22:49;94399.22;;;20.20;33.29
27958;BME280;15295;42.658;23.374;2023-03-21T08:25:32;94396.16;;;20.36;33.73
27958;BME280;15295;42.658;23.374;2023-03-21T08:28:10;94351.91;;;20.14;32.84
27958;BME280;15295;42.658;23.374;2023-03-21T08:30:36;94348.66;;;20.16;32.77
27958;BME280;15295;42.658;23.374;2023-03-21T08:33:09;94370.06;;;20.42;32.19
27958;BME280;15295;42.658;23.374;2023-03-21T08:35:38;94353.94;;;20.23;32.31
27958;BME280;15295;42.658;23.374;2023-03-21T08:38:08;94357.91;;;20.31;32.28
27958;BME280;15295;42.658;23.374;2023-03-21T08:40:36;94329.84;;;20.20;32.03
27958;BME280;15295;42.658;23.374;2023-03-21T08:43:11;94390.56;;;20.63;31.78
27958;BME280;15295;42.658;23.374;2023-03-21T08:45:38;94347.91;;;20.24;31.35
27958;BME280;15295;42.658;23.374;2023-03-21T08:48:03;94352.97;;;20.35;31.52
27958;BME280;15295;42.658;23.374;2023-03-21T08:50:31;94338.81;;;20.33;31.71
27958;BME280;15295;42.658;23.374;2023-03-21T08:52:58;94368.81;;;20.61;31.26
27958;BME280;15295;42.658;23.374;2023-03-21T08:55:24;94368.94;;;20.67;30.91
27958;BME280;15295;42.658;23.374;2023-03-21T08:57:55;94370.47;;;20.68;30.91
27958;BME280;15295;42.658;23.374;2023-03-21T09:00:25;94357.13;;;20.48;30.87
27958;BME280;15295;42.658;23.374;2023-03-21T09:02:56;94338.19;;;20.38;30.81
27958;BME280;15295;42.658;23.374;2023-03-21T09:05:24;94376.19;;;20.64;31.13
27958;BME280;15295;42.658;23.374;2023-03-21T09:07:51;94381.44;;;20.71;31.51
27958;BME280;15295;42.658;23.374;2023-03-21T09:10:20;94347.97;;;20.66;31.28
27958;BME280;15295;42.658;23.374;2023-03-21T09:12:46;94358.53;;;20.86;30.72
27958;BME280;15295;42.658;23.374;2023-03-21T09:15:25;94341.78;;;20.71;30.30
27958;BME280;15295;42.658;23.374;2023-03-21T09:17:55;94369.81;;;20.91;30.63
27958;BME280;15295;42.658;23.374;2023-03-21T09:20:24;94373.78;;;20.99;29.93
27958;BME280;15295;42.658;23.374;2023-03-21T09:22:55;94374.41;;;21.03;30.12
27958;BME280;15295;42.658;23.374;2023-03-21T09:25:23;94339.59;;;20.75;30.02
27958;BME280;15295;42.658;23.374;2023-03-21T09:27:51;94363.16;;;20.98;30.15
27958;BME280;15295;42.658;23.374;2023-03-21T09:30:25;94354.03;;;21.06;30.07
27958;BME280;15295;42.658;23.374;2023-03-21T09:32:58;94328.25;;;20.97;30.06
27958;BME280;15295;42.658;23.374;2023-03-21T09:35:25;94354.94;;;21.12;30.22
27958;BME280;15295;42.658;23.374;2023-03-21T09:37:53;94341.03;;;21.12;30.14
27958;BME280;15295;42.658;23.374;2023-03-21T09:40:49;94305.72;;;21.04;29.74
27958;BME280;15295;42.658;23.374;2023-03-21T09:43:35;94319.94;;;21.29;29.60
27958;BME280;15295;42.658;23.374;2023-03-21T09:46:18;94330.28;;;21.52;29.56
27958;BME280;15295;42.658;23.374;2023-03-21T09:49:10;94321.13;;;21.61;29.35
27958;BME280;15295;42.658;23.374;2023-03-21T09:51:48;94333.59;;;21.66;29.25
27958;BME280;15295;42.658;23.374;2023-03-21T09:54:37;94280.59;;;21.45;29.30
27958;BME280;15295;42.658;23.374;2023-03-21T09:57:34;94332.25;;;21.85;29.32
27958;BME280;15295;42.658;23.374;2023-03-21T10:00:34;94334.28;;;21.99;29.01
27958;BME280;15295;42.658;23.374;2023-03-21T10:03:10;94306.09;;;21.91;29.05
27958;BME280;15295;42.658;23.374;2023-03-21T10:06:10;94331.81;;;22.15;28.70
27958;BME280;15295;42.658;23.374;2023-03-21T10:08:52;94296.31;;;21.96;28.52
27958;BME280;15295;42.658;23.374;2023-03-21T10:11:31;94304.09;;;22.06;28.50
27958;BME280;15295;42.658;23.374;2023-03-21T10:17:05;94290.19;;;22.36;28.14
27958;BME280;15295;42.658;23.374;2023-03-21T10:19:59;94292.59;;;22.43;28.27
27958;BME280;15295;42.658;23.374;2023-03-21T10:22:41;94278.00;;;22.77;28.12
27958;BME280;15295;42.658;23.374;2023-03-21T10:25:27;94273.53;;;22.99;27.78
27958;BME280;15295;42.658;23.374;2023-03-21T10:28:00;94291.88;;;23.41;27.22
27958;BME280;15295;42.658;23.374;2023-03-21T10:30:52;94301.44;;;23.74;26.85
27958;BME280;15295;42.658;23.374;2023-03-21T10:33:25;94307.34;;;24.02;26.36
27958;BME280;15295;42.658;23.374;2023-03-21T10:36:02;94266.25;;;24.03;26.17
27958;BME280;15295;42.658;23.374;2023-03-21T10:38:34;94263.66;;;24.19;25.76
27958;BME280;15295;42.658;23.374;2023-03-21T10:41:04;94282.91;;;24.43;25.19
27958;BME280;15295;42.658;23.374;2023-03-21T10:46:52;94316.06;;;24.81;24.67
27958;BME280;15295;42.658;23.374;2023-03-21T10:49:21;94308.41;;;24.50;24.90
27958;BME280;15295;42.658;23.374;2023-03-21T10:52:03;94311.66;;;24.49;24.42
27958;BME280;15295;42.658;23.374;2023-03-21T10:54:32;94308.88;;;24.49;24.13
27958;BME280;15295;42.658;23.374;2023-03-21T10:57:09;94257.00;;;24.17;24.50
27958;BME280;15295;42.658;23.374;2023-03-21T10:59:59;94296.38;;;24.44;24.06
27958;BME280;15295;42.658;23.374;2023-03-21T11:02:35;94274.38;;;24.26;24.35
27958;BME280;15295;42.658;23.374;2023-03-21T11:07:59;94252.63;;;24.10;24.00
27958;BME280;15295;42.658;23.374;2023-03-21T11:10:36;94258.59;;;24.23;23.74
27958;BME280;15295;42.658;23.374;2023-03-21T11:13:25;94278.38;;;24.20;23.67
27958;BME280;15295;42.658;23.374;2023-03-21T11:16:05;94230.44;;;23.75;23.75
27958;BME280;15295;42.658;23.374;2023-03-21T11:18:42;94229.50;;;23.84;23.94
27958;BME280;15295;42.658;23.374;2023-03-21T11:21:10;94236.63;;;24.05;23.67
27958;BME280;15295;42.658;23.374;2023-03-21T11:23:42;94214.13;;;23.94;23.81
27958;BME280;15295;42.658;23.374;2023-03-21T11:26:28;94266.50;;;24.50;23.47
27958;BME280;15295;42.658;23.374;2023-03-21T11:31:58;94207.91;;;24.30;23.44
27958;BME280;15295;42.658;23.374;2023-03-21T11:34:43;94208.22;;;24.38;23.28
27958;BME280;15295;42.658;23.374;2023-03-21T11:37:25;94196.94;;;24.52;23.35
27958;BME280;15295;42.658;23.374;2023-03-21T11:40:34;94253.88;;;24.92;23.10
27958;BME280;15295;42.658;23.374;2023-03-21T11:43:25;94242.94;;;24.88;22.51
27958;BME280;15295;42.658;23.374;2023-03-21T11:46:08;94230.63;;;24.75;22.81
27958;BME280;15295;42.658;23.374;2023-03-21T11:48:43;94212.09;;;24.77;22.71
27958;BME280;15295;42.658;23.374;2023-03-21T11:54:25;94240.44;;;24.96;22.94
27958;BME280;15295;42.658;23.374;2023-03-21T12:00:14;94236.38;;;24.97;22.77
27958;BME280;15295;42.658;23.374;2023-03-21T12:03:14;94231.03;;;24.93;22.71
27958;BME280;15295;42.658;23.374;2023-03-21T12:06:00;94193.06;;;24.76;22.69
27958;BME280;15295;42.658;23.374;2023-03-21T12:08:45;94218.31;;;24.92;22.68
27958;BME280;15295;42.658;23.374;2023-03-21T12:11:29;94212.97;;;24.89;22.77
27958;BME280;15295;42.658;23.374;2023-03-21T12:14:34;94213.16;;;24.80;22.96
27958;BME280;15295;42.658;23.374;2023-03-21T12:23:12;94207.34;;;24.58;23.00
27958;BME280;15295;42.658;23.374;2023-03-21T12:26:04;94192.19;;;24.33;23.22
27958;BME280;15295;42.658;23.374;2023-03-21T12:32:03;94195.66;;;24.22;23.09
27958;BME280;15295;42.658;23.374;2023-03-21T12:38:13;94194.91;;;24.27;23.25
27958;BME280;15295;42.658;23.374;2023-03-21T12:43:53;94166.16;;;23.90;23.28
27958;BME280;15295;42.658;23.374;2023-03-21T12:46:46;94121.56;;;23.70;23.24
27958;BME280;15295;42.658;23.374;2023-03-21T12:52:09;94178.94;;;24.02;23.51
27958;BME280;15295;42.658;23.374;2023-03-21T12:54:46;94126.09;;;23.67;23.70
27958;BME280;15295;42.658;23.374;2023-03-21T12:57:33;94174.09;;;23.97;23.62
27958;BME280;15295;42.658;23.374;2023-03-21T13:00:15;94167.19;;;23.93;23.88
27958;BME280;15295;42.658;23.374;2023-03-21T13:03:13;94125.16;;;23.76;23.92
27958;BME280;15295;42.658;23.374;2023-03-21T13:05:53;94130.53;;;23.80;24.18
27958;BME280;15295;42.658;23.374;2023-03-21T13:08:37;94094.00;;;23.52;23.95
27958;BME280;15295;42.658;23.374;2023-03-21T13:11:13;94132.50;;;23.73;24.05
27958;BME280;15295;42.658;23.374;2023-03-21T13:13:52;94142.53;;;23.91;24.19
27958;BME280;15295;42.658;23.374;2023-03-21T13:16:27;94126.25;;;23.84;23.94
27958;BME280;15295;42.658;23.374;2023-03-21T13:21:57;94148.22;;;24.02;23.88
27958;BME280;15295;42.658;23.374;2023-03-21T13:24:51;94145.06;;;23.89;23.97
27958;BME280;15295;42.658;23.374;2023-03-21T13:27:33;94104.69;;;23.59;24.18
27958;BME280;15295;42.658;23.374;2023-03-21T13:30:06;94136.44;;;23.87;24.23
27958;BME280;15295;42.658;23.374;2023-03-21T13:32:45;94140.75;;;23.88;24.51
27958;BME280;15295;42.658;23.374;2023-03-21T13:35:24;94115.50;;;23.71;24.75
27958;BME280;15295;42.658;23.374;2023-03-21T13:38:18;94116.78;;;23.50;25.40
27958;BME280;15295;42.658;23.374;2023-03-21T13:40:58;94121.44;;;23.59;25.56
27958;BME280;15295;42.658;23.374;2023-03-21T13:43:52;94122.56;;;23.67;25.34
27958;BME280;15295;42.658;23.374;2023-03-21T13:49:27;94111.41;;;23.67;25.32
27958;BME280;15295;42.658;23.374;2023-03-21T13:55:14;94101.56;;;23.46;25.90
27958;BME280;15295;42.658;23.374;2023-03-21T13:57:41;94089.34;;;23.23;26.09
27958;BME280;15295;42.658;23.374;2023-03-21T14:00:38;94061.56;;;23.09;26.07
27958;BME280;15295;42.658;23.374;2023-03-21T14:03:09;94129.44;;;23.46;26.27
27958;BME280;15295;42.658;23.374;2023-03-21T14:05:48;94072.94;;;23.05;26.64
27958;BME280;15295;42.658;23.374;2023-03-21T14:08:16;94089.44;;;23.09;27.04
27958;BME280;15295;42.658;23.374;2023-03-21T14:10:53;94091.75;;;23.10;27.31
27958;BME280;15295;42.658;23.374;2023-03-21T14:13:24;94056.72;;;22.83;27.42
27958;BME280;15295;42.658;23.374;2023-03-21T14:16:06;94066.19;;;22.91;27.52
27958;BME280;15295;42.658;23.374;2023-03-21T14:18:52;94115.78;;;23.08;27.78
27958;BME280;15295;42.658;23.374;2023-03-21T14:21:27;94085.06;;;22.62;27.98
27958;BME280;15295;42.658;23.374;2023-03-21T14:23:56;94105.47;;;22.73;28.11
27958;BME280;15295;42.658;23.374;2023-03-21T14:26:28;94073.81;;;22.36;28.40
27958;BME280;15295;42.658;23.374;2023-03-21T14:28:56;94057.03;;;22.31;28.31
27958;BME280;15295;42.658;23.374;2023-03-21T14:31:23;94090.97;;;22.49;28.33
27958;BME280;15295;42.658;23.374;2023-03-21T14:33:57;94075.94;;;22.26;28.51
27958;BME280;15295;42.658;23.374;2023-03-21T14:36:31;94048.84;;;22.07;28.60
27958;BME280;15295;42.658;23.374;2023-03-21T14:39:22;94111.06;;;22.39;28.87
27958;BME280;15295;42.658;23.374;2023-03-21T14:42:01;94096.13;;;22.21;29.12
27958;BME280;15295;42.658;23.374;2023-03-21T14:44:47;94106.84;;;22.28;29.01
27958;BME280;15295;42.658;23.374;2023-03-21T14:47:20;94045.72;;;21.85;29.00
27958;BME280;15295;42.658;23.374;2023-03-21T14:49:48;94087.22;;;22.03;29.43